createdAt,value
2022-10-08T00:03:49.811Z,13.07
2022-10-08T00:08:49.235Z,13.06
2022-10-08T00:13:49.524Z,13.14
2022-10-08T00:18:48.797Z,13.27
2022-10-08T00:23:46.854Z,13.4
2022-10-08T00:28:46.722Z,13.51
2022-10-08T00:33:46.031Z,13.56
2022-10-08T00:38:47.091Z,13.56
2022-10-08T00:43:43.987Z,13.58
2022-10-08T00:48:43.943Z,13.6
2022-10-08T00:53:42.945Z,13.63
2022-10-08T00:58:42.709Z,13.65
2022-10-08T01:03:41.010Z,13.69
2022-10-08T01:08:41.347Z,13.7
2022-10-08T01:13:40.973Z,13.73
2022-10-08T01:18:40.110Z,13.73
2022-10-08T01:23:39.188Z,13.75
2022-10-08T01:28:39.055Z,13.78
2022-10-08T01:33:38.578Z,13.8
2022-10-08T01:38:38.207Z,13.81
2022-10-08T01:43:39.208Z,13.81
2022-10-08T01:48:36.187Z,13.8
2022-10-08T01:53:35.799Z,13.79
2022-10-08T01:58:35.819Z,13.8
2022-10-08T01:59:56.927Z,13.8
2022-10-08T02:04:56.588Z,13.77
2022-10-08T02:09:56.032Z,13.69
2022-10-08T02:14:55.464Z,13.7
2022-10-08T02:19:56.128Z,13.67
2022-10-08T02:24:53.169Z,13.65
2022-10-08T02:29:52.936Z,13.65
2022-10-08T02:34:51.892Z,13.66
2022-10-08T02:39:51.842Z,13.62
2022-10-08T02:44:50.002Z,13.67
2022-10-08T02:49:49.874Z,13.7
2022-10-08T02:54:49.682Z,13.73
2022-10-08T02:58:55.371Z,13.75
2022-10-08T03:03:55.019Z,13.78
2022-10-08T03:08:54.169Z,13.8
2022-10-08T03:13:54.360Z,13.8
2022-10-08T03:18:53.094Z,13.83
2022-10-08T03:23:54.196Z,13.84
2022-10-08T03:28:51.274Z,13.85
2022-10-08T03:33:51.090Z,13.85
2022-10-08T03:38:50.871Z,13.85
2022-10-08T03:43:49.968Z,13.85
2022-10-08T03:48:49.326Z,13.85
2022-10-08T03:53:49.485Z,13.85
2022-10-08T03:58:48.518Z,13.85
2022-10-08T04:03:49.283Z,13.84
2022-10-08T04:08:46.539Z,13.84
2022-10-08T04:13:46.308Z,13.82
2022-10-08T04:18:45.350Z,13.81
2022-10-08T04:23:44.972Z,13.8
2022-10-08T04:28:43.402Z,13.77
2022-10-08T04:33:43.273Z,13.76
2022-10-08T04:38:42.903Z,13.75
2022-10-08T04:43:42.582Z,13.71
2022-10-08T04:48:41.656Z,13.69
2022-10-08T04:53:41.299Z,13.67
2022-10-08T04:58:40.991Z,13.65
2022-10-08T05:03:40.280Z,13.63
2022-10-08T05:08:40.941Z,13.63
2022-10-08T05:13:38.068Z,13.61
2022-10-08T05:18:37.357Z,13.59
2022-10-08T05:23:36.894Z,13.56
2022-10-08T05:28:35.892Z,13.51
2022-10-08T05:33:35.428Z,13.46
2022-10-08T05:38:35.601Z,13.43
2022-10-08T05:43:34.577Z,13.39
2022-10-08T05:48:35.713Z,13.34
2022-10-08T05:53:32.935Z,13.29
2022-10-08T05:58:32.518Z,13.25
2022-10-08T05:59:53.963Z,13.24
2022-10-08T06:04:53.813Z,13.22
2022-10-08T06:09:51.917Z,13.17
2022-10-08T06:14:51.960Z,13.18
2022-10-08T06:19:51.446Z,13.16
2022-10-08T06:24:51.111Z,13.15
2022-10-08T06:29:49.320Z,13.14
2022-10-08T06:34:49.123Z,13.16
2022-10-08T06:39:48.601Z,13.16
2022-10-08T06:44:47.777Z,13.22
2022-10-08T06:49:45.503Z,13.27
2022-10-08T06:54:45.582Z,13.3
2022-10-08T07:00:05.213Z,13.34
2022-10-08T07:04:23.857Z,13.37
2022-10-08T07:09:12.361Z,13.41
2022-10-08T07:14:11.732Z,13.44
2022-10-08T07:19:09.861Z,13.47
2022-10-08T07:24:09.502Z,13.54
2022-10-08T07:29:09.622Z,13.56
2022-10-08T07:34:08.692Z,13.56
2022-10-08T07:39:08.141Z,13.56
2022-10-08T07:44:07.396Z,13.6
2022-10-08T07:49:07.565Z,13.62
2022-10-08T07:54:06.637Z,13.67
2022-10-08T07:58:54.358Z,13.75
2022-10-08T08:03:52.109Z,13.83
2022-10-08T08:08:51.627Z,13.96
2022-10-08T08:13:50.989Z,14.07
2022-10-08T08:18:50.312Z,14.14
2022-10-08T08:23:48.736Z,14.39
2022-10-08T08:28:48.210Z,14.81
2022-10-08T08:33:47.775Z,14.86
2022-10-08T08:38:48.657Z,14.85
2022-10-08T08:43:45.567Z,14.83
2022-10-08T08:48:45.687Z,14.81
2022-10-08T08:53:45.484Z,14.9
2022-10-08T08:58:45.088Z,14.89
2022-10-08T09:03:43.154Z,14.78
2022-10-08T09:08:43.032Z,14.75
2022-10-08T09:13:42.697Z,14.88
2022-10-08T09:18:42.368Z,15.24
2022-10-08T09:23:42.098Z,15.42
2022-10-08T09:28:41.919Z,15.69
2022-10-08T09:33:41.634Z,15.89
2022-10-08T09:38:41.312Z,16.04
2022-10-08T09:43:41.808Z,16.14
2022-10-08T09:48:38.865Z,16.28
2022-10-08T09:53:38.805Z,16.59
2022-10-08T09:58:38.118Z,16.75
2022-10-08T10:03:38.043Z,16.87
2022-10-08T10:08:36.186Z,17.06
2022-10-08T10:13:35.986Z,17.23
2022-10-08T10:18:35.263Z,17.33
2022-10-08T10:23:36.437Z,17.28
2022-10-08T10:28:34.035Z,17.37
2022-10-08T10:33:34.389Z,17.66
2022-10-08T10:38:33.561Z,17.81
2022-10-08T10:43:33.511Z,17.87
2022-10-08T10:48:32.154Z,18.37
2022-10-08T10:53:31.992Z,18.9
2022-10-08T10:58:32.275Z,19.06
2022-10-08T10:59:53.856Z,19.04
2022-10-08T11:04:54.147Z,18.98
2022-10-08T11:09:52.962Z,19.17
2022-10-08T11:14:53.148Z,18.92
2022-10-08T11:19:52.167Z,18.4
2022-10-08T11:24:53.032Z,18.87
2022-10-08T11:29:50.425Z,18.84
2022-10-08T11:34:49.696Z,18.26
2022-10-08T11:39:48.463Z,17.71
2022-10-08T11:44:47.725Z,17.23
2022-10-08T11:49:46.765Z,16.89
2022-10-08T11:54:48.758Z,16.99
2022-10-08T11:59:09.974Z,17.2
2022-10-08T12:04:10.571Z,17.12
2022-10-08T12:09:07.543Z,17.08
2022-10-08T12:14:07.117Z,17.04
2022-10-08T12:19:06.071Z,17.02
2022-10-08T12:24:05.450Z,17.02
2022-10-08T12:29:03.859Z,17.01
2022-10-08T12:34:03.345Z,17.06
2022-10-08T12:39:03.341Z,17.18
2022-10-08T12:44:02.984Z,17.12
2022-10-08T12:49:01.926Z,17.12
2022-10-08T12:54:01.619Z,17.15
2022-10-08T12:58:47.292Z,17.16
2022-10-08T13:03:46.883Z,17.2
2022-10-08T13:08:47.565Z,17.07
2022-10-08T13:13:44.618Z,17.01
2022-10-08T13:18:44.154Z,17.02
2022-10-08T13:23:43.838Z,17.16
2022-10-08T13:28:59.637Z,17.87
2022-10-08T13:33:43.153Z,18.41
2022-10-08T13:38:43.773Z,18.37
2022-10-08T13:43:42.923Z,18.49
2022-10-08T13:48:43.998Z,18.87
2022-10-08T13:53:41.185Z,18.7
2022-10-08T13:58:41.114Z,18.24
2022-10-08T14:00:02.769Z,18.19
2022-10-08T14:05:02.047Z,18.2
2022-10-08T14:10:00.347Z,18.69
2022-10-08T14:15:00.678Z,18.4
2022-10-08T14:20:00.445Z,18.62
2022-10-08T14:25:00.025Z,18.59
2022-10-08T14:29:59.136Z,19.01
2022-10-08T14:34:59.290Z,19.51
2022-10-08T14:39:58.678Z,19.14
2022-10-08T14:44:58.307Z,18.79
2022-10-08T14:49:58.813Z,18.7
2022-10-08T14:54:55.743Z,18.66
2022-10-08T14:59:25.916Z,18.37
2022-10-08T15:04:27.005Z,18.29
2022-10-08T15:09:23.471Z,18.12
2022-10-08T15:14:23.681Z,18.17
2022-10-08T15:19:23.899Z,18.2
2022-10-08T15:24:10.956Z,18.19
2022-10-08T15:29:10.629Z,18.1
2022-10-08T15:34:10.411Z,18.27
2022-10-08T15:39:10.001Z,18.18
2022-10-08T15:44:09.123Z,18.61
2022-10-08T15:49:08.725Z,18.28
2022-10-08T15:54:08.247Z,17.94
2022-10-08T15:58:54.569Z,17.76
2022-10-08T16:03:55.446Z,17.62
2022-10-08T16:08:52.472Z,17.67
2022-10-08T16:13:52.155Z,17.45
2022-10-08T16:18:52.155Z,17.19
2022-10-08T16:23:51.764Z,16.96
2022-10-08T16:28:49.786Z,16.77
2022-10-08T16:33:49.570Z,16.56
2022-10-08T16:38:48.924Z,16.29
2022-10-08T16:43:49.755Z,16.04
2022-10-08T16:48:46.877Z,15.71
2022-10-08T16:53:46.380Z,15.39
2022-10-08T16:58:45.214Z,15.09
2022-10-08T17:00:07.186Z,15.03
2022-10-08T17:10:05.147Z,14.47
2022-10-08T17:15:04.794Z,14.2
2022-10-08T17:20:04.243Z,13.92
2022-10-08T17:25:03.399Z,13.69
2022-10-08T17:30:02.972Z,13.45
2022-10-08T17:35:02.570Z,13.24
2022-10-08T17:40:02.131Z,13.03
2022-10-08T17:45:02.756Z,12.9
2022-10-08T17:49:59.761Z,12.77
2022-10-08T17:54:59.372Z,12.66
2022-10-08T17:59:19.579Z,12.53
2022-10-08T18:04:30.778Z,12.42
2022-10-08T18:09:27.259Z,12.27
2022-10-08T18:14:27.180Z,12.13
2022-10-08T18:19:28.216Z,12
2022-10-08T18:24:25.075Z,11.85
2022-10-08T18:29:24.637Z,11.67
2022-10-08T18:34:25.758Z,11.56
2022-10-08T18:39:12.108Z,11.41
2022-10-08T18:44:12.163Z,11.25
2022-10-08T18:49:10.926Z,11.12
2022-10-08T18:54:10.739Z,10.99
2022-10-08T18:58:58.745Z,10.87
2022-10-08T19:03:58.387Z,10.76
2022-10-08T19:08:58.227Z,10.69
2022-10-08T19:13:57.768Z,10.67
2022-10-08T19:18:57.107Z,10.59
2022-10-08T19:23:56.739Z,10.49
2022-10-08T19:28:56.066Z,10.4
2022-10-08T19:33:55.543Z,10.27
2022-10-08T19:38:56.141Z,10.14
2022-10-08T19:43:53.212Z,10.06
2022-10-08T19:48:52.980Z,9.99
2022-10-08T19:53:52.688Z,9.91
2022-10-08T19:58:52.080Z,9.85
2022-10-08T20:03:51.252Z,9.79
2022-10-08T20:08:51.334Z,9.72
2022-10-08T20:13:50.089Z,9.66
2022-10-08T20:18:51.151Z,9.6
2022-10-08T20:23:48.148Z,9.55
2022-10-08T20:28:47.839Z,9.5
2022-10-08T20:33:47.025Z,9.41
2022-10-08T20:38:46.689Z,9.33
2022-10-08T20:43:44.934Z,9.22
2022-10-08T20:48:44.822Z,9.13
2022-10-08T20:53:44.472Z,9.03
2022-10-08T20:58:44.033Z,8.97
2022-10-08T21:03:42.858Z,8.89
2022-10-08T21:08:42.542Z,8.79
2022-10-08T21:13:42.133Z,8.71
2022-10-08T21:18:41.738Z,8.62
2022-10-08T21:23:42.342Z,8.52
2022-10-08T21:28:39.215Z,8.43
2022-10-08T21:33:38.721Z,8.47
2022-10-08T21:38:38.046Z,8.43
2022-10-08T21:43:37.460Z,8.41
2022-10-08T21:48:36.731Z,8.39
2022-10-08T21:53:37.079Z,8.42
2022-10-08T21:58:35.879Z,8.46
2022-10-08T21:59:58.864Z,8.47
2022-10-08T22:04:56.863Z,8.47
2022-10-08T22:09:56.697Z,8.35
2022-10-08T22:14:55.698Z,8.35
2022-10-08T22:19:54.977Z,8.29
2022-10-08T22:24:53.657Z,8.24
2022-10-08T22:29:52.919Z,8.2
2022-10-08T22:34:53.189Z,8.1
2022-10-08T22:39:52.228Z,7.94
2022-10-08T22:44:51.473Z,7.88
2022-10-08T22:49:51.047Z,7.84
2022-10-08T22:54:50.119Z,7.78
2022-10-08T22:59:10.670Z,7.77
2022-10-08T23:04:08.864Z,7.73
2022-10-08T23:09:08.633Z,7.67
2022-10-08T23:14:07.915Z,7.58
2022-10-08T23:19:08.540Z,7.49
2022-10-08T23:24:05.668Z,7.43
2022-10-08T23:29:05.557Z,7.52
2022-10-08T23:34:04.692Z,7.44
2022-10-08T23:39:04.675Z,7.29
2022-10-08T23:44:02.714Z,7.16
2022-10-08T23:49:02.544Z,7.03
2022-10-08T23:54:02.342Z,6.94
2022-10-08T23:58:56.611Z,6.85
